KFFC

Atlanta Regional Falcon Field Airport

Atlanta, Georgia, USA
METAR KFFC 190253Z AUTO 00000KT 10SM CLR M03/M08 A3034 RMK AO2 SLP283 T10281078 58005
Observed Flight Rules
Jan-19 @ 02:53 UTC (56 minutes ago) Visual Flight Rules
Wind Visibility Clouds
Calm 10 miles
  • Clear skies
Temperatures Readings
Current -3°C / 27°F
Dewpoint -8°C / 18°F
Humidity 69%
Altimeter 30.34" Hg
Pressure 1028.3 hPa
Elevation 262
METAR KFFC 190253Z AUTO 00000KT 10SM CLR M03/M08 A3034 RMK AO2 SLP283 T10281078 58005
Observed Flight Rules
Jan-19 @ 02:53 UTC
(56 minutes ago)
VFR
Wind Visibility
Calm 10 miles
Clouds
  • Clear skies
Temperature Dewpoint
-3°C / 27°F -8°C / 18°F
Humidity Altimeter Pressure
69% 30.34" Hg 1028.3 hPa